Prince Rupert Airport

CYPR | YPR

Prince Rupert , British Columbia , Canada

Saturday, June 6th, 2020 | 22:11

Weather

CYPR 070500Z AUTO 26009G16KT 220V280 9SM OVC016 10/07 A2987 RMK SLP118

Charts

No Charts Available

Gates

5 Available

Runways

1 Available

Active ATC

Events -Coming Soon-

1 Events Coming Up Soon

Next event:
CYPR Flyout